Portada
METAR-TAF:

METAR-TAF

Aeropuertos :

Istres, Francia

latitud: 43-31N, longitud: 004-56E, altitud: 23 m

Observación

El informe se hizo hace 33 minutos, a las 14:00 UTC
Viento 16 kt del norte
Temperatura 14°C
Humedad 41%
Presión 1027 hPa
Visibilidad 10 km o más
sin nubes por debajo de 1500 m y sin presencia de cumulonimbus.

METAR: LFMI 031400Z AUTO 35016KT CAVOK 14/01 Q1027 BECMG 36016G30KT

Hora: 15:33 (14:33 UTC)

Pronóstico

El informe se hizo hace 6 horas y 33 minutos, a las 08:00 UTC
Pronóstico válido del 03 a las 09 UTC al 04 a las 09 UTC
Viento 16 kt del norte con ráfagas de 30 kt
Visibilidad 10 km o más
sin nubes por debajo de 1500 m y sin presencia de cumulonimbus.
Evolucionando progresivamente
del 03 a las 19 UTC al 03 a las 21 UTC
Viento 22 kt del norte con ráfagas de 40 kt

TAF: LFMI 030800Z 0309/0409 36016G30KT CAVOK TX14/0313Z TN07/0405Z BECMG 0319/0321 35022G40KT

Observaciones y pronósticos meteorológicos de más de 4000 aeropuertos (mensajes METAR y TAF).

Los puntos amarillos y rojos representan las estaciones disponibles.

Ponga el ratón en el punto deseado para ver el nombre de la estación.

Haga clic para ver las observaciones y los pronósticos meteorológicos.

Para cambiar el mapa : haga clic en los botones verdes con una cruz de color negro para hacer un zoom, en el botón verde con un guión para alejar o en las flechas verdes para mapas adyacentes.


METAR-TAF: